sensor_id;sensor_type;location;lat;lon;timestamp;pressure;altitude;pressure_sealevel;temperature;humidity
5988;BME280;3021;51.000;6.980;2023-03-04T00:00:29;66711.94;;;3.70;100.00
5988;BME280;3021;51.000;6.980;2023-03-04T00:02:55;66708.31;;;3.65;100.00
5988;BME280;3021;51.000;6.980;2023-03-04T00:05:20;66700.59;;;3.62;100.00
5988;BME280;3021;51.000;6.980;2023-03-04T00:07:46;66704.28;;;3.61;100.00
5988;BME280;3021;51.000;6.980;2023-03-04T00:10:12;66702.56;;;3.59;100.00
5988;BME280;3021;51.000;6.980;2023-03-04T00:12:37;66703.31;;;3.62;100.00
5988;BME280;3021;51.000;6.980;2023-03-04T00:15:03;66710.59;;;3.67;100.00
5988;BME280;3021;51.000;6.980;2023-03-04T00:17:29;66706.59;;;3.63;100.00
5988;BME280;3021;51.000;6.980;2023-03-04T00:19:56;66711.75;;;3.68;100.00
5988;BME280;3021;51.000;6.980;2023-03-04T00:22:22;66706.59;;;3.63;100.00
5988;BME280;3021;51.000;6.980;2023-03-04T00:24:47;66706.59;;;3.63;100.00
5988;BME280;3021;51.000;6.980;2023-03-04T00:27:13;66699.84;;;3.59;100.00
5988;BME280;3021;51.000;6.980;2023-03-04T00:29:39;66706.59;;;3.63;100.00
5988;BME280;3021;51.000;6.980;2023-03-04T00:32:04;66703.88;;;3.63;100.00
5988;BME280;3021;51.000;6.980;2023-03-04T00:34:30;66709.06;;;3.68;100.00
5988;BME280;3021;51.000;6.980;2023-03-04T00:36:55;66712.91;;;3.69;100.00
5988;BME280;3021;51.000;6.980;2023-03-04T00:39:26;66717.50;;;3.73;100.00
5988;BME280;3021;51.000;6.980;2023-03-04T00:41:52;66712.91;;;3.69;100.00
5988;BME280;3021;51.000;6.980;2023-03-04T00:44:18;66706.75;;;3.66;100.00
5988;BME280;3021;51.000;6.980;2023-03-04T00:46:43;66693.69;;;3.56;100.00
5988;BME280;3021;51.000;6.980;2023-03-04T00:49:09;66699.13;;;3.56;100.00
5988;BME280;3021;51.000;6.980;2023-03-04T00:51:34;66701.56;;;3.61;100.00
5988;BME280;3021;51.000;6.980;2023-03-04T00:54:00;66711.19;;;3.67;100.00
5988;BME280;3021;51.000;6.980;2023-03-04T00:56:25;66712.91;;;3.69;100.00
5988;BME280;3021;51.000;6.980;2023-03-04T00:58:51;66701.00;;;3.60;100.00
5988;BME280;3021;51.000;6.980;2023-03-04T01:01:16;66699.13;;;3.56;100.00
5988;BME280;3021;51.000;6.980;2023-03-04T01:03:42;66698.13;;;3.58;100.00
5988;BME280;3021;51.000;6.980;2023-03-04T01:06:08;66689.94;;;3.48;100.00
5988;BME280;3021;51.000;6.980;2023-03-04T01:08:33;66671.88;;;3.37;100.00
5988;BME280;3021;51.000;6.980;2023-03-04T01:10:59;66674.03;;;3.36;100.00
5988;BME280;3021;51.000;6.980;2023-03-04T01:13:25;66680.16;;;3.39;100.00
5988;BME280;3021;51.000;6.980;2023-03-04T01:15:50;66680.34;;;3.42;100.00
5988;BME280;3021;51.000;6.980;2023-03-04T01:18:16;66686.06;;;3.47;100.00
5988;BME280;3021;51.000;6.980;2023-03-04T01:20:41;66678.75;;;3.43;100.00
5988;BME280;3021;51.000;6.980;2023-03-04T01:23:07;66675.91;;;3.40;100.00
5988;BME280;3021;51.000;6.980;2023-03-04T01:25:33;66671.72;;;3.34;100.00
5988;BME280;3021;51.000;6.980;2023-03-04T01:28:00;66678.63;;;3.40;100.00
5988;BME280;3021;51.000;6.980;2023-03-04T01:30:25;66676.16;;;3.36;100.00
5988;BME280;3021;51.000;6.980;2023-03-04T01:32:51;66672.88;;;3.35;100.00
5988;BME280;3021;51.000;6.980;2023-03-04T01:35:17;66676.91;;;3.39;100.00
5988;BME280;3021;51.000;6.980;2023-03-04T01:37:42;66680.34;;;3.42;100.00
5988;BME280;3021;51.000;6.980;2023-03-04T01:40:08;66679.75;;;3.41;100.00
5988;BME280;3021;51.000;6.980;2023-03-04T01:42:35;66685.94;;;3.44;100.00
5988;BME280;3021;51.000;6.980;2023-03-04T01:47:35;66681.47;;;3.43;100.00
5988;BME280;3021;51.000;6.980;2023-03-04T01:50:05;66686.81;;;3.50;100.00
5988;BME280;3021;51.000;6.980;2023-03-04T01:52:35;66688.53;;;3.52;100.00
5988;BME280;3021;51.000;6.980;2023-03-04T01:55:09;66691.09;;;3.49;100.00
5988;BME280;3021;51.000;6.980;2023-03-04T01:57:39;66679.19;;;3.41;100.00
5988;BME280;3021;51.000;6.980;2023-03-04T02:00:31;66681.91;;;3.41;100.00
5988;BME280;3021;51.000;6.980;2023-03-04T02:03:01;66682.47;;;3.41;100.00
5988;BME280;3021;51.000;6.980;2023-03-04T02:05:29;66680.75;;;3.40;100.00
5988;BME280;3021;51.000;6.980;2023-03-04T02:10:30;66688.22;;;3.46;100.00
5988;BME280;3021;51.000;6.980;2023-03-04T02:12:58;66696.97;;;3.57;100.00
5988;BME280;3021;51.000;6.980;2023-03-04T02:15:24;66687.38;;;3.51;100.00
5988;BME280;3021;51.000;6.980;2023-03-04T02:17:50;66683.34;;;3.47;100.00
5988;BME280;3021;51.000;6.980;2023-03-04T02:23:03;66698.41;;;3.53;100.00
5988;BME280;3021;51.000;6.980;2023-03-04T02:25:36;66706.59;;;3.63;100.00
5988;BME280;3021;51.000;6.980;2023-03-04T02:28:04;66703.88;;;3.63;100.00
5988;BME280;3021;51.000;6.980;2023-03-04T02:30:29;66707.72;;;3.64;100.00
5988;BME280;3021;51.000;6.980;2023-03-04T02:32:55;66699.69;;;3.57;100.00
5988;BME280;3021;51.000;6.980;2023-03-04T02:35:20;66691.25;;;3.52;100.00
5988;BME280;3021;51.000;6.980;2023-03-04T02:37:46;66699.69;;;3.57;100.00
5988;BME280;3021;51.000;6.980;2023-03-04T02:40:17;66691.09;;;3.49;100.00
5988;BME280;3021;51.000;6.980;2023-03-04T02:42:46;66686.66;;;3.48;100.00
5988;BME280;3021;51.000;6.980;2023-03-04T02:45:43;66688.38;;;3.49;100.00
5988;BME280;3021;51.000;6.980;2023-03-04T02:48:11;66688.94;;;3.50;100.00
5988;BME280;3021;51.000;6.980;2023-03-04T02:50:41;66689.53;;;3.50;100.00
5988;BME280;3021;51.000;6.980;2023-03-04T02:53:08;66688.94;;;3.50;100.00
5988;BME280;3021;51.000;6.980;2023-03-04T02:55:34;66688.94;;;3.50;100.00
5988;BME280;3021;51.000;6.980;2023-03-04T02:57:59;66677.28;;;3.37;100.00
5988;BME280;3021;51.000;6.980;2023-03-04T03:00:26;66681.47;;;3.43;100.00
5988;BME280;3021;51.000;6.980;2023-03-04T03:02:52;66685.94;;;3.44;100.00
5988;BME280;3021;51.000;6.980;2023-03-04T03:05:18;66686.66;;;3.48;100.00
5988;BME280;3021;51.000;6.980;2023-03-04T03:07:44;66690.66;;;3.51;100.00
5988;BME280;3021;51.000;6.980;2023-03-04T03:10:09;66687.66;;;3.46;100.00
5988;BME280;3021;51.000;6.980;2023-03-04T03:12:35;66678.63;;;3.40;100.00
5988;BME280;3021;51.000;6.980;2023-03-04T03:15:01;66678.44;;;3.38;100.00
5988;BME280;3021;51.000;6.980;2023-03-04T03:17:26;66680.16;;;3.39;100.00
5988;BME280;3021;51.000;6.980;2023-03-04T03:19:52;66681.06;;;3.45;100.00
5988;BME280;3021;51.000;6.980;2023-03-04T03:22:18;66679.75;;;3.41;100.00
5988;BME280;3021;51.000;6.980;2023-03-04T03:24:43;66681.31;;;3.40;100.00
5988;BME280;3021;51.000;6.980;2023-03-04T03:27:09;66675.56;;;3.35;100.00
5988;BME280;3021;51.000;6.980;2023-03-04T03:29:35;66672.88;;;3.35;100.00
5988;BME280;3021;51.000;6.980;2023-03-04T03:32:01;66684.59;;;3.41;100.00
5988;BME280;3021;51.000;6.980;2023-03-04T03:34:26;66677.47;;;3.39;100.00
5988;BME280;3021;51.000;6.980;2023-03-04T03:36:52;66668.84;;;3.32;100.00
5988;BME280;3021;51.000;6.980;2023-03-04T03:39:18;66671.72;;;3.34;100.00
5988;BME280;3021;51.000;6.980;2023-03-04T03:41:44;66670.00;;;3.33;100.00
5988;BME280;3021;51.000;6.980;2023-03-04T03:44:09;66675.75;;;3.38;100.00
5988;BME280;3021;51.000;6.980;2023-03-04T03:46:35;66673.59;;;3.38;100.00
5988;BME280;3021;51.000;6.980;2023-03-04T03:49:01;66681.91;;;3.41;100.00
5988;BME280;3021;51.000;6.980;2023-03-04T03:51:26;66681.06;;;3.45;100.00
5988;BME280;3021;51.000;6.980;2023-03-04T03:53:52;66679.75;;;3.41;100.00
5988;BME280;3021;51.000;6.980;2023-03-04T03:56:17;66682.06;;;3.43;100.00
5988;BME280;3021;51.000;6.980;2023-03-04T03:58:43;66688.78;;;3.47;100.00
5988;BME280;3021;51.000;6.980;2023-03-04T04:01:09;66686.06;;;3.47;100.00
5988;BME280;3021;51.000;6.980;2023-03-04T04:03:35;66681.47;;;3.43;100.00
5988;BME280;3021;51.000;6.980;2023-03-04T04:06:00;66683.22;;;3.44;100.00
5988;BME280;3021;51.000;6.980;2023-03-04T04:08:26;66685.50;;;3.46;100.00
5988;BME280;3021;51.000;6.980;2023-03-04T04:10:52;66690.09;;;3.51;100.00
5988;BME280;3021;51.000;6.980;2023-03-04T04:13:17;66694.69;;;3.55;100.00
5988;BME280;3021;51.000;6.980;2023-03-04T04:15:43;66702.00;;;3.59;100.00
5988;BME280;3021;51.000;6.980;2023-03-04T04:18:09;66702.72;;;3.62;100.00
5988;BME280;3021;51.000;6.980;2023-03-04T04:20:34;66707.16;;;3.63;100.00
5988;BME280;3021;51.000;6.980;2023-03-04T04:23:00;66710.59;;;3.67;100.00
5988;BME280;3021;51.000;6.980;2023-03-04T04:25:26;66696.41;;;3.56;100.00
5988;BME280;3021;51.000;6.980;2023-03-04T04:27:52;66690.66;;;3.51;100.00
5988;BME280;3021;51.000;6.980;2023-03-04T04:30:18;66695.69;;;3.53;100.00
5988;BME280;3021;51.000;6.980;2023-03-04T04:32:43;66699.69;;;3.57;100.00
5988;BME280;3021;51.000;6.980;2023-03-04T04:35:09;66702.72;;;3.62;100.00
5988;BME280;3021;51.000;6.980;2023-03-04T04:37:35;66708.88;;;3.65;100.00
5988;BME280;3021;51.000;6.980;2023-03-04T04:47:46;66705.44;;;3.62;100.00
5988;BME280;3021;51.000;6.980;2023-03-04T04:50:12;66706.19;;;3.65;100.00
5988;BME280;3021;51.000;6.980;2023-03-04T04:52:37;66707.72;;;3.64;100.00
5988;BME280;3021;51.000;6.980;2023-03-04T04:55:03;66706.19;;;3.65;100.00
5988;BME280;3021;51.000;6.980;2023-03-04T04:57:29;66707.91;;;3.67;100.00
5988;BME280;3021;51.000;6.980;2023-03-04T04:59:55;66725.41;;;3.77;100.00
5988;BME280;3021;51.000;6.980;2023-03-04T05:02:20;66714.06;;;3.70;100.00
5988;BME280;3021;51.000;6.980;2023-03-04T05:04:46;66696.97;;;3.57;100.00
5988;BME280;3021;51.000;6.980;2023-03-04T05:07:12;66702.00;;;3.59;100.00
5988;BME280;3021;51.000;6.980;2023-03-04T05:09:38;66703.13;;;3.60;100.00
5988;BME280;3021;51.000;6.980;2023-03-04T05:12:03;66710.22;;;3.69;100.00
5988;BME280;3021;51.000;6.980;2023-03-04T05:14:29;66711.75;;;3.68;100.00
5988;BME280;3021;51.000;6.980;2023-03-04T05:16:54;66715.22;;;3.71;100.00
5988;BME280;3021;51.000;6.980;2023-03-04T05:19:20;66721.38;;;3.74;100.00
5988;BME280;3021;51.000;6.980;2023-03-04T05:21:46;66709.63;;;3.68;100.00
5988;BME280;3021;51.000;6.980;2023-03-04T05:24:11;66714.63;;;3.70;100.00
5988;BME280;3021;51.000;6.980;2023-03-04T05:26:37;66714.06;;;3.70;100.00
5988;BME280;3021;51.000;6.980;2023-03-04T05:29:03;66716.66;;;3.77;100.00
5988;BME280;3021;51.000;6.980;2023-03-04T05:31:29;66720.97;;;3.76;100.00
5988;BME280;3021;51.000;6.980;2023-03-04T05:33:55;66721.09;;;3.78;100.00
5988;BME280;3021;51.000;6.980;2023-03-04T05:36:21;66730.13;;;3.84;100.00
5988;BME280;3021;51.000;6.980;2023-03-04T05:38:46;66730.47;;;3.89;100.00
5988;BME280;3021;51.000;6.980;2023-03-04T05:41:12;66736.06;;;3.92;100.00
5988;BME280;3021;51.000;6.980;2023-03-04T05:43:38;66741.06;;;3.94;100.00
5988;BME280;3021;51.000;6.980;2023-03-04T05:46:07;66746.22;;;3.98;100.00
5988;BME280;3021;51.000;6.980;2023-03-04T05:48:33;66747.94;;;4.00;100.00
5988;BME280;3021;51.000;6.980;2023-03-04T05:51:00;66748.53;;;4.01;100.00
5988;BME280;3021;51.000;6.980;2023-03-04T05:53:26;66749.81;;;4.04;100.00
5988;BME280;3021;51.000;6.980;2023-03-04T05:55:52;66749.41;;;4.06;100.00
5988;BME280;3021;51.000;6.980;2023-03-04T05:58:17;66757.88;;;4.11;100.00
5988;BME280;3021;51.000;6.980;2023-03-04T06:00:43;66772.66;;;4.22;100.00
5988;BME280;3021;51.000;6.980;2023-03-04T06:03:20;66787.03;;;4.35;100.00
5988;BME280;3021;51.000;6.980;2023-03-04T06:05:46;66796.97;;;4.46;100.00
5988;BME280;3021;51.000;6.980;2023-03-04T06:15:18;66833.75;;;4.79;100.00
5988;BME280;3021;51.000;6.980;2023-03-04T06:31:53;66864.38;;;5.09;100.00
5988;BME280;3021;51.000;6.980;2023-03-04T06:34:56;66864.78;;;5.07;100.00
5988;BME280;3021;51.000;6.980;2023-03-04T06:37:54;66862.66;;;5.08;100.00
5988;BME280;3021;51.000;6.980;2023-03-04T06:40:52;66871.13;;;5.13;100.00
5988;BME280;3021;51.000;6.980;2023-03-04T06:47:34;66882.22;;;5.25;100.00
5988;BME280;3021;51.000;6.980;2023-03-04T06:57:16;66894.31;;;5.36;100.00
5988;BME280;3021;51.000;6.980;2023-03-04T07:00:43;66892.25;;;5.29;100.00
5988;BME280;3021;51.000;6.980;2023-03-04T07:07:28;66900.88;;;5.37;100.00
5988;BME280;3021;51.000;6.980;2023-03-04T07:14:40;66903.91;;;5.42;100.00
5988;BME280;3021;51.000;6.980;2023-03-04T07:17:47;66911.41;;;5.49;100.00
5988;BME280;3021;51.000;6.980;2023-03-04T07:21:11;66917.88;;;5.57;100.00
5988;BME280;3021;51.000;6.980;2023-03-04T07:24:35;66920.75;;;5.60;100.00
5988;BME280;3021;51.000;6.980;2023-03-04T07:27:23;66922.31;;;5.59;100.00
5988;BME280;3021;51.000;6.980;2023-03-04T07:30:29;66926.19;;;5.60;100.00
5988;BME280;3021;51.000;6.980;2023-03-04T07:54:25;66947.22;;;5.83;100.00
5988;BME280;3021;51.000;6.980;2023-03-04T07:56:50;66939.59;;;5.74;100.00
5988;BME280;3021;51.000;6.980;2023-03-04T07:59:17;66945.50;;;5.82;100.00
5988;BME280;3021;51.000;6.980;2023-03-04T08:01:43;66957.28;;;5.87;100.00
5988;BME280;3021;51.000;6.980;2023-03-04T08:04:09;66961.63;;;5.96;100.00
5988;BME280;3021;51.000;6.980;2023-03-04T08:06:34;66969.69;;;6.03;100.00
5988;BME280;3021;51.000;6.980;2023-03-04T08:09:03;66973.72;;;6.07;100.00
5988;BME280;3021;51.000;6.980;2023-03-04T08:11:30;66973.16;;;6.07;100.00
5988;BME280;3021;51.000;6.980;2023-03-04T08:13:56;66978.16;;;6.09;100.00
5988;BME280;3021;51.000;6.980;2023-03-04T08:16:22;66988.94;;;6.16;100.00
5988;BME280;3021;51.000;6.980;2023-03-04T08:18:51;66966.81;;;6.01;100.00
5988;BME280;3021;51.000;6.980;2023-03-04T09:28:27;67354.81;;;9.47;100.00
5988;BME280;3021;51.000;6.980;2023-03-04T09:30:53;67381.34;;;9.71;100.00
5988;BME280;3021;51.000;6.980;2023-03-04T09:33:18;67413.13;;;9.99;100.00
5988;BME280;3021;51.000;6.980;2023-03-04T09:35:44;67373.09;;;9.61;100.00
5988;BME280;3021;51.000;6.980;2023-03-04T09:38:10;67342.66;;;9.37;100.00
5988;BME280;3021;51.000;6.980;2023-03-04T09:40:47;67287.13;;;8.85;100.00
5988;BME280;3021;51.000;6.980;2023-03-04T09:43:24;67270.94;;;8.70;100.00
5988;BME280;3021;51.000;6.980;2023-03-04T09:45:57;67247.47;;;8.52;100.00
5988;BME280;3021;51.000;6.980;2023-03-04T09:48:26;67232.28;;;8.36;100.00
5988;BME280;3021;51.000;6.980;2023-03-04T09:54:01;67203.03;;;8.12;100.00
5988;BME280;3021;51.000;6.980;2023-03-04T09:56:29;67203.59;;;8.12;100.00
5988;BME280;3021;51.000;6.980;2023-03-04T10:01:36;67201.88;;;8.11;100.00
5988;BME280;3021;51.000;6.980;2023-03-04T10:04:25;67207.06;;;8.16;100.00
5988;BME280;3021;51.000;6.980;2023-03-04T10:06:53;67150.41;;;7.63;100.00
5988;BME280;3021;51.000;6.980;2023-03-04T10:09:25;67163.81;;;7.77;100.00
5988;BME280;3021;51.000;6.980;2023-03-04T10:12:04;67190.34;;;8.01;100.00
5988;BME280;3021;51.000;6.980;2023-03-04T10:14:37;67214.56;;;8.22;100.00
5988;BME280;3021;51.000;6.980;2023-03-04T10:17:11;67249.75;;;8.54;100.00
5988;BME280;3021;51.000;6.980;2023-03-04T10:19:53;67288.41;;;8.88;100.00
5988;BME280;3021;51.000;6.980;2023-03-04T10:22:35;67302.28;;;9.01;100.00
5988;BME280;3021;51.000;6.980;2023-03-04T10:25:25;67304.56;;;9.03;100.00
5988;BME280;3021;51.000;6.980;2023-03-04T10:27:59;67275.16;;;8.76;100.00
5988;BME280;3021;51.000;6.980;2023-03-04T10:30:39;67230.69;;;8.37;100.00
5988;BME280;3021;51.000;6.980;2023-03-04T10:33:15;67179.94;;;7.91;100.00
5988;BME280;3021;51.000;6.980;2023-03-04T10:35:45;67142.06;;;7.60;100.00
5988;BME280;3021;51.000;6.980;2023-03-04T10:38:12;67147.09;;;7.62;100.00
5988;BME280;3021;51.000;6.980;2023-03-04T10:40:40;67226.53;;;8.30;100.00
5988;BME280;3021;51.000;6.980;2023-03-04T10:43:21;67275.16;;;8.76;100.00
5988;BME280;3021;51.000;6.980;2023-03-04T10:45:47;67289.72;;;8.92;100.00
5988;BME280;3021;51.000;6.980;2023-03-04T10:48:25;67338.34;;;9.38;100.00
5988;BME280;3021;51.000;6.980;2023-03-04T10:50:52;67362.88;;;9.55;100.00
5988;BME280;3021;51.000;6.980;2023-03-04T10:53:32;67336.31;;;9.31;100.00
5988;BME280;3021;51.000;6.980;2023-03-04T10:56:01;67328.22;;;9.24;100.00
5988;BME280;3021;51.000;6.980;2023-03-04T10:58:27;67283.78;;;8.84;100.00
5988;BME280;3021;51.000;6.980;2023-03-04T11:01:02;67242.25;;;8.47;100.00
5988;BME280;3021;51.000;6.980;2023-03-04T11:03:33;67217.44;;;8.25;100.00
5988;BME280;3021;51.000;6.980;2023-03-04T11:08:35;67328.97;;;9.27;100.00
5988;BME280;3021;51.000;6.980;2023-03-04T11:11:01;67383.78;;;9.76;100.00
5988;BME280;3021;51.000;6.980;2023-03-04T11:13:26;67465.84;;;10.49;100.00
5988;BME280;3021;51.000;6.980;2023-03-04T11:18:49;67553.13;;;11.27;100.00
5988;BME280;3021;51.000;6.980;2023-03-04T11:21:21;67621.34;;;11.87;100.00
5988;BME280;3021;51.000;6.980;2023-03-04T11:23:50;67668.69;;;12.27;100.00
5988;BME280;3021;51.000;6.980;2023-03-04T11:26:22;67712.25;;;12.68;100.00
5988;BME280;3021;51.000;6.980;2023-03-04T11:28:55;67700.81;;;12.60;100.00
5988;BME280;3021;51.000;6.980;2023-03-04T11:31:31;67580.72;;;11.49;100.00
5988;BME280;3021;51.000;6.980;2023-03-04T11:34:02;67547.78;;;11.19;100.00
5988;BME280;3021;51.000;6.980;2023-03-04T11:36:49;67528.69;;;11.02;100.00
5988;BME280;3021;51.000;6.980;2023-03-04T11:44:54;67417.72;;;10.03;100.00
5988;BME280;3021;51.000;6.980;2023-03-04T11:47:40;67389.44;;;9.78;100.00
5988;BME280;3021;51.000;6.980;2023-03-04T11:50:22;67343.97;;;9.40;100.00
5988;BME280;3021;51.000;6.980;2023-03-04T11:56:08;67364.75;;;9.59;100.00
5988;BME280;3021;51.000;6.980;2023-03-04T11:58:49;67330.84;;;9.31;100.00
5988;BME280;3021;51.000;6.980;2023-03-04T12:01:39;67308.63;;;9.06;100.00
5988;BME280;3021;51.000;6.980;2023-03-04T12:04:33;67249.19;;;8.53;100.00
5988;BME280;3021;51.000;6.980;2023-03-04T12:13:00;67184.72;;;7.98;100.00
5988;BME280;3021;51.000;6.980;2023-03-04T12:18:39;67287.25;;;8.87;100.00
5988;BME280;3021;51.000;6.980;2023-03-04T12:24:11;67399.69;;;9.85;100.00
5988;BME280;3021;51.000;6.980;2023-03-04T12:26:54;67398.09;;;9.86;100.00
5988;BME280;3021;51.000;6.980;2023-03-04T12:49:17;67312.81;;;9.12;100.00
5988;BME280;3021;51.000;6.980;2023-03-04T12:54:48;67283.78;;;8.84;100.00
5988;BME280;3021;51.000;6.980;2023-03-04T12:57:16;67298.81;;;8.97;100.00
5988;BME280;3021;51.000;6.980;2023-03-04T12:59:48;67309.91;;;9.10;100.00
5988;BME280;3021;51.000;6.980;2023-03-04T15:07:54;67262.13;;;8.60;100.00
5988;BME280;3021;51.000;6.980;2023-03-04T15:10:25;67259.00;;;8.62;100.00
5988;BME280;3021;51.000;6.980;2023-03-04T15:12:53;67256.53;;;8.57;100.00
5988;BME280;3021;51.000;6.980;2023-03-04T15:15:36;67233.75;;;8.42;100.00
5988;BME280;3021;51.000;6.980;2023-03-04T15:18:13;67233.59;;;8.39;100.00
5988;BME280;3021;51.000;6.980;2023-03-04T15:20:39;67221.47;;;8.28;100.00
5988;BME280;3021;51.000;6.980;2023-03-04T15:23:05;67214.41;;;8.20;100.00
5988;BME280;3021;51.000;6.980;2023-03-04T15:25:39;67184.72;;;7.98;100.00
5988;BME280;3021;51.000;6.980;2023-03-04T15:28:05;67158.06;;;7.72;100.00
5988;BME280;3021;51.000;6.980;2023-03-04T15:30:38;67144.22;;;7.59;100.00
5988;BME280;3021;51.000;6.980;2023-03-04T15:33:04;67157.47;;;7.71;100.00
5988;BME280;3021;51.000;6.980;2023-03-04T15:35:31;67169.00;;;7.82;100.00
5988;BME280;3021;51.000;6.980;2023-03-04T15:37:57;67164.97;;;7.78;100.00
5988;BME280;3021;51.000;6.980;2023-03-04T15:40:30;67166.13;;;7.79;100.00
5988;BME280;3021;51.000;6.980;2023-03-04T15:42:58;67151.56;;;7.64;100.00
5988;BME280;3021;51.000;6.980;2023-03-04T15:45:26;67143.94;;;7.64;100.00
5988;BME280;3021;51.000;6.980;2023-03-04T15:47:51;67142.50;;;7.58;100.00
5988;BME280;3021;51.000;6.980;2023-03-04T15:50:18;67140.91;;;7.59;100.00
5988;BME280;3021;51.000;6.980;2023-03-04T15:52:44;67153.28;;;7.65;100.00
5988;BME280;3021;51.000;6.980;2023-03-04T15:55:15;67158.63;;;7.72;100.00
5988;BME280;3021;51.000;6.980;2023-03-04T15:57:42;67164.97;;;7.78;100.00
5988;BME280;3021;51.000;6.980;2023-03-04T16:00:11;67169.00;;;7.82;100.00
5988;BME280;3021;51.000;6.980;2023-03-04T16:02:37;67168.25;;;7.78;100.00
5988;BME280;3021;51.000;6.980;2023-03-04T16:05:04;67156.34;;;7.70;100.00
5988;BME280;3021;51.000;6.980;2023-03-04T16:07:30;67151.56;;;7.64;100.00
5988;BME280;3021;51.000;6.980;2023-03-04T16:09:59;67140.91;;;7.59;100.00
5988;BME280;3021;51.000;6.980;2023-03-04T16:12:26;67131.97;;;7.46;100.00
5988;BME280;3021;51.000;6.980;2023-03-04T17:51:15;66985.81;;;6.18;100.00
5988;BME280;3021;51.000;6.980;2023-03-04T17:53:41;66971.41;;;6.05;100.00
5988;BME280;3021;51.000;6.980;2023-03-04T17:56:07;66969.09;;;6.03;100.00
5988;BME280;3021;51.000;6.980;2023-03-04T17:58:34;66968.97;;;6.00;100.00
5988;BME280;3021;51.000;6.980;2023-03-04T18:03:38;66968.69;;;6.05;100.00
5988;BME280;3021;51.000;6.980;2023-03-04T18:06:04;66970.84;;;6.04;100.00
5988;BME280;3021;51.000;6.980;2023-03-04T18:08:29;66972.00;;;6.05;100.00
5988;BME280;3021;51.000;6.980;2023-03-04T18:10:55;66975.31;;;6.06;100.00
5988;BME280;3021;51.000;6.980;2023-03-04T18:13:20;66982.63;;;6.10;100.00
5988;BME280;3021;51.000;6.980;2023-03-04T18:15:46;66974.88;;;6.08;100.00
5988;BME280;3021;51.000;6.980;2023-03-04T18:18:11;66976.59;;;6.10;100.00
5988;BME280;3021;51.000;6.980;2023-03-04T18:20:37;66978.03;;;6.06;100.00
5988;BME280;3021;51.000;6.980;2023-03-04T18:23:02;66979.31;;;6.10;100.00
5988;BME280;3021;51.000;6.980;2023-03-04T18:25:28;66973.31;;;6.09;100.00
5988;BME280;3021;51.000;6.980;2023-03-04T18:27:54;66978.91;;;6.12;100.00
5988;BME280;3021;51.000;6.980;2023-03-04T18:30:19;66977.19;;;6.10;100.00
5988;BME280;3021;51.000;6.980;2023-03-04T18:32:51;66975.44;;;6.09;100.00
5988;BME280;3021;51.000;6.980;2023-03-04T18:35:17;66981.47;;;6.09;100.00
5988;BME280;3021;51.000;6.980;2023-03-04T18:37:43;66977.03;;;6.08;100.00
5988;BME280;3021;51.000;6.980;2023-03-04T18:40:10;66978.75;;;6.09;100.00
5988;BME280;3021;51.000;6.980;2023-03-04T18:42:35;66988.53;;;6.18;100.00
5988;BME280;3021;51.000;6.980;2023-03-04T18:45:02;66982.38;;;6.15;100.00
5988;BME280;3021;51.000;6.980;2023-03-04T18:47:28;66969.69;;;6.03;100.00
5988;BME280;3021;51.000;6.980;2023-03-04T18:49:53;66966.53;;;6.05;100.00
5988;BME280;3021;51.000;6.980;2023-03-04T18:52:19;66975.44;;;6.09;100.00
5988;BME280;3021;51.000;6.980;2023-03-04T18:54:45;66972.41;;;6.03;100.00
5988;BME280;3021;51.000;6.980;2023-03-04T18:57:12;66974.88;;;6.08;100.00
5988;BME280;3021;51.000;6.980;2023-03-04T18:59:44;66975.44;;;6.09;100.00
5988;BME280;3021;51.000;6.980;2023-03-04T19:05:22;66975.88;;;6.07;100.00
5988;BME280;3021;51.000;6.980;2023-03-04T21:32:38;67032.28;;;6.57;100.00
5988;BME280;3021;51.000;6.980;2023-03-04T21:35:04;67026.09;;;6.54;100.00
5988;BME280;3021;51.000;6.980;2023-03-04T21:37:29;67030.56;;;6.55;100.00
5988;BME280;3021;51.000;6.980;2023-03-04T21:39:55;67035.16;;;6.60;100.00
5988;BME280;3021;51.000;6.980;2023-03-04T21:42:22;67037.06;;;6.64;100.00
5988;BME280;3021;51.000;6.980;2023-03-04T21:44:48;67034.16;;;6.61;100.00
5988;BME280;3021;51.000;6.980;2023-03-04T21:47:14;67036.31;;;6.61;100.00
5988;BME280;3021;51.000;6.980;2023-03-04T21:49:39;67029.00;;;6.56;100.00
5988;BME280;3021;51.000;6.980;2023-03-04T21:52:05;67031.72;;;6.56;100.00
5988;BME280;3021;51.000;6.980;2023-03-04T21:54:31;67040.50;;;6.67;100.00
5988;BME280;3021;51.000;6.980;2023-03-04T21:56:56;67024.38;;;6.52;100.00
5988;BME280;3021;51.000;6.980;2023-03-04T21:59:22;67027.28;;;6.55;100.00
5988;BME280;3021;51.000;6.980;2023-03-04T22:38:03;66996.16;;;6.27;100.00
5988;BME280;3021;51.000;6.980;2023-03-04T22:40:28;66990.81;;;6.20;100.00
5988;BME280;3021;51.000;6.980;2023-03-04T22:42:54;66979.06;;;6.14;100.00
5988;BME280;3021;51.000;6.980;2023-03-04T22:45:20;66982.19;;;6.12;100.00
5988;BME280;3021;51.000;6.980;2023-03-04T22:47:48;66973.16;;;6.07;100.00
5988;BME280;3021;51.000;6.980;2023-03-04T22:50:14;66972.41;;;6.03;100.00
5988;BME280;3021;51.000;6.980;2023-03-04T22:52:39;66972.25;;;6.01;100.00
5988;BME280;3021;51.000;6.980;2023-03-04T22:55:06;66968.53;;;6.02;100.00
5988;BME280;3021;51.000;6.980;2023-03-04T22:57:32;66949.94;;;5.83;100.00
5988;BME280;3021;51.000;6.980;2023-03-04T22:59:58;66941.31;;;5.76;100.00
5988;BME280;3021;51.000;6.980;2023-03-04T23:02:23;66943.03;;;5.77;100.00
5988;BME280;3021;51.000;6.980;2023-03-04T23:04:49;66943.34;;;5.82;100.00
5988;BME280;3021;51.000;6.980;2023-03-04T23:07:15;66948.38;;;5.84;100.00
5988;BME280;3021;51.000;6.980;2023-03-04T23:09:40;66948.38;;;5.84;100.00
5988;BME280;3021;51.000;6.980;2023-03-04T23:12:06;66952.09;;;5.83;100.00
5988;BME280;3021;51.000;6.980;2023-03-04T23:14:32;66958.16;;;5.93;100.00
5988;BME280;3021;51.000;6.980;2023-03-04T23:16:57;66956.44;;;5.92;100.00
5988;BME280;3021;51.000;6.980;2023-03-04T23:19:23;66955.84;;;5.91;100.00
5988;BME280;3021;51.000;6.980;2023-03-04T23:21:48;66951.25;;;5.87;100.00
5988;BME280;3021;51.000;6.980;2023-03-04T23:24:14;66962.47;;;5.92;100.00
5988;BME280;3021;51.000;6.980;2023-03-04T23:26:40;66944.34;;;5.81;100.00
5988;BME280;3021;51.000;6.980;2023-03-04T23:29:09;66937.44;;;5.75;100.00
5988;BME280;3021;51.000;6.980;2023-03-04T23:31:35;66938.59;;;5.76;100.00
5988;BME280;3021;51.000;6.980;2023-03-04T23:34:02;66943.63;;;5.78;100.00
5988;BME280;3021;51.000;6.980;2023-03-04T23:36:34;66943.63;;;5.78;100.00
5988;BME280;3021;51.000;6.980;2023-03-04T23:39:00;66939.91;;;5.79;100.00
5988;BME280;3021;51.000;6.980;2023-03-04T23:41:28;66937.28;;;5.72;100.00